sensor_id;sensor_type;location;lat;lon;timestamp;P1;durP1;ratioP1;P2;durP2;ratioP2
51495;SDS011;37572;52.094;4.870;2023-04-25T00:00:23;8.57;;;3.50;;
51495;SDS011;37572;52.094;4.870;2023-04-25T00:02:50;10.30;;;4.53;;
51495;SDS011;37572;52.094;4.870;2023-04-25T00:05:15;10.95;;;4.10;;
51495;SDS011;37572;52.094;4.870;2023-04-25T00:07:41;8.23;;;3.30;;
51495;SDS011;37572;52.094;4.870;2023-04-25T00:10:08;15.40;;;4.38;;
51495;SDS011;37572;52.094;4.870;2023-04-25T00:12:33;12.55;;;3.60;;
51495;SDS011;37572;52.094;4.870;2023-04-25T00:14:59;9.95;;;2.92;;
51495;SDS011;37572;52.094;4.870;2023-04-25T00:17:24;8.40;;;3.25;;
51495;SDS011;37572;52.094;4.870;2023-04-25T00:19:50;9.48;;;3.88;;
51495;SDS011;37572;52.094;4.870;2023-04-25T00:22:15;8.65;;;3.65;;
51495;SDS011;37572;52.094;4.870;2023-04-25T00:24:42;6.53;;;3.33;;
51495;SDS011;37572;52.094;4.870;2023-04-25T00:27:07;11.80;;;4.45;;
51495;SDS011;37572;52.094;4.870;2023-04-25T00:29:33;12.47;;;3.80;;
51495;SDS011;37572;52.094;4.870;2023-04-25T00:31:58;11.63;;;3.40;;
51495;SDS011;37572;52.094;4.870;2023-04-25T00:34:24;8.18;;;3.78;;
51495;SDS011;37572;52.094;4.870;2023-04-25T00:36:49;7.32;;;2.80;;
51495;SDS011;37572;52.094;4.870;2023-04-25T00:39:14;7.72;;;2.70;;
51495;SDS011;37572;52.094;4.870;2023-04-25T00:41:40;11.33;;;2.97;;
51495;SDS011;37572;52.094;4.870;2023-04-25T00:44:05;9.90;;;3.20;;
51495;SDS011;37572;52.094;4.870;2023-04-25T00:46:36;10.18;;;2.97;;
51495;SDS011;37572;52.094;4.870;2023-04-25T00:49:01;10.00;;;3.83;;
51495;SDS011;37572;52.094;4.870;2023-04-25T00:51:27;12.25;;;3.60;;
51495;SDS011;37572;52.094;4.870;2023-04-25T00:53:52;10.00;;;4.00;;
51495;SDS011;37572;52.094;4.870;2023-04-25T00:56:18;12.57;;;4.15;;
51495;SDS011;37572;52.094;4.870;2023-04-25T00:58:44;12.60;;;5.28;;
51495;SDS011;37572;52.094;4.870;2023-04-25T01:01:10;11.00;;;3.63;;
51495;SDS011;37572;52.094;4.870;2023-04-25T01:03:37;7.70;;;3.53;;
51495;SDS011;37572;52.094;4.870;2023-04-25T01:06:09;13.88;;;4.40;;
51495;SDS011;37572;52.094;4.870;2023-04-25T01:08:36;10.88;;;3.40;;
51495;SDS011;37572;52.094;4.870;2023-04-25T01:11:03;6.43;;;2.90;;
51495;SDS011;37572;52.094;4.870;2023-04-25T01:13:28;7.28;;;3.72;;
51495;SDS011;37572;52.094;4.870;2023-04-25T01:15:54;6.80;;;3.20;;
51495;SDS011;37572;52.094;4.870;2023-04-25T01:18:19;10.23;;;3.63;;
51495;SDS011;37572;52.094;4.870;2023-04-25T01:20:45;8.20;;;3.13;;
51495;SDS011;37572;52.094;4.870;2023-04-25T01:23:12;9.05;;;3.15;;
51495;SDS011;37572;52.094;4.870;2023-04-25T01:25:37;8.73;;;3.10;;
51495;SDS011;37572;52.094;4.870;2023-04-25T01:28:04;11.90;;;4.38;;
51495;SDS011;37572;52.094;4.870;2023-04-25T01:30:30;10.57;;;3.40;;
51495;SDS011;37572;52.094;4.870;2023-04-25T01:32:55;8.73;;;2.97;;
51495;SDS011;37572;52.094;4.870;2023-04-25T01:35:22;10.60;;;2.90;;
51495;SDS011;37572;52.094;4.870;2023-04-25T01:37:49;8.45;;;3.15;;
51495;SDS011;37572;52.094;4.870;2023-04-25T01:40:14;7.07;;;3.25;;
51495;SDS011;37572;52.094;4.870;2023-04-25T01:42:41;6.43;;;2.85;;
51495;SDS011;37572;52.094;4.870;2023-04-25T01:45:08;7.68;;;4.15;;
51495;SDS011;37572;52.094;4.870;2023-04-25T01:47:35;9.25;;;3.03;;
51495;SDS011;37572;52.094;4.870;2023-04-25T01:50:04;14.57;;;3.03;;
51495;SDS011;37572;52.094;4.870;2023-04-25T01:52:31;7.43;;;2.80;;
51495;SDS011;37572;52.094;4.870;2023-04-25T01:54:57;7.35;;;3.67;;
51495;SDS011;37572;52.094;4.870;2023-04-25T01:57:24;6.45;;;2.42;;
51495;SDS011;37572;52.094;4.870;2023-04-25T01:59:49;9.18;;;3.33;;
51495;SDS011;37572;52.094;4.870;2023-04-25T02:02:15;6.53;;;2.83;;
51495;SDS011;37572;52.094;4.870;2023-04-25T02:04:40;8.13;;;2.55;;
51495;SDS011;37572;52.094;4.870;2023-04-25T02:07:05;6.50;;;2.50;;
51495;SDS011;37572;52.094;4.870;2023-04-25T02:09:31;7.13;;;2.40;;
51495;SDS011;37572;52.094;4.870;2023-04-25T02:11:56;7.27;;;2.20;;
51495;SDS011;37572;52.094;4.870;2023-04-25T02:14:22;10.90;;;2.78;;
51495;SDS011;37572;52.094;4.870;2023-04-25T02:16:48;10.40;;;2.50;;
51495;SDS011;37572;52.094;4.870;2023-04-25T02:19:13;7.10;;;3.83;;
51495;SDS011;37572;52.094;4.870;2023-04-25T02:21:38;7.03;;;3.03;;
51495;SDS011;37572;52.094;4.870;2023-04-25T02:24:03;4.63;;;2.20;;
51495;SDS011;37572;52.094;4.870;2023-04-25T02:26:29;8.88;;;2.55;;
51495;SDS011;37572;52.094;4.870;2023-04-25T02:28:56;4.32;;;2.38;;
51495;SDS011;37572;52.094;4.870;2023-04-25T02:31:21;8.95;;;3.13;;
51495;SDS011;37572;52.094;4.870;2023-04-25T02:33:47;4.88;;;2.30;;
51495;SDS011;37572;52.094;4.870;2023-04-25T02:36:12;7.63;;;2.42;;
51495;SDS011;37572;52.094;4.870;2023-04-25T02:38:38;6.05;;;2.05;;
51495;SDS011;37572;52.094;4.870;2023-04-25T02:41:03;7.05;;;2.80;;
51495;SDS011;37572;52.094;4.870;2023-04-25T02:43:29;9.35;;;3.60;;
51495;SDS011;37572;52.094;4.870;2023-04-25T02:45:54;7.13;;;2.25;;
51495;SDS011;37572;52.094;4.870;2023-04-25T02:48:20;5.97;;;2.45;;
51495;SDS011;37572;52.094;4.870;2023-04-25T02:50:45;5.10;;;1.47;;
51495;SDS011;37572;52.094;4.870;2023-04-25T02:53:10;11.05;;;2.63;;
51495;SDS011;37572;52.094;4.870;2023-04-25T02:55:36;5.85;;;2.55;;
51495;SDS011;37572;52.094;4.870;2023-04-25T02:58:01;6.07;;;2.05;;
51495;SDS011;37572;52.094;4.870;2023-04-25T03:00:26;5.45;;;2.00;;
51495;SDS011;37572;52.094;4.870;2023-04-25T03:02:52;7.35;;;2.47;;
51495;SDS011;37572;52.094;4.870;2023-04-25T03:05:17;7.00;;;2.60;;
51495;SDS011;37572;52.094;4.870;2023-04-25T03:07:43;5.35;;;3.90;;
51495;SDS011;37572;52.094;4.870;2023-04-25T03:10:09;6.35;;;2.38;;
51495;SDS011;37572;52.094;4.870;2023-04-25T03:12:35;5.53;;;3.33;;
51495;SDS011;37572;52.094;4.870;2023-04-25T03:15:01;6.43;;;2.13;;
51495;SDS011;37572;52.094;4.870;2023-04-25T03:17:26;6.10;;;2.80;;
51495;SDS011;37572;52.094;4.870;2023-04-25T03:19:51;10.30;;;2.40;;
51495;SDS011;37572;52.094;4.870;2023-04-25T03:22:17;6.20;;;2.27;;
51495;SDS011;37572;52.094;4.870;2023-04-25T03:24:42;5.27;;;2.70;;
51495;SDS011;37572;52.094;4.870;2023-04-25T03:27:07;6.30;;;2.47;;
51495;SDS011;37572;52.094;4.870;2023-04-25T03:29:33;5.15;;;2.00;;
51495;SDS011;37572;52.094;4.870;2023-04-25T03:31:58;5.43;;;2.03;;
51495;SDS011;37572;52.094;4.870;2023-04-25T03:34:23;8.27;;;2.87;;
51495;SDS011;37572;52.094;4.870;2023-04-25T03:36:49;9.10;;;2.50;;
51495;SDS011;37572;52.094;4.870;2023-04-25T03:39:14;4.90;;;2.05;;
51495;SDS011;37572;52.094;4.870;2023-04-25T03:41:40;4.75;;;2.28;;
51495;SDS011;37572;52.094;4.870;2023-04-25T03:44:05;5.95;;;2.40;;
51495;SDS011;37572;52.094;4.870;2023-04-25T03:46:30;7.60;;;2.70;;
51495;SDS011;37572;52.094;4.870;2023-04-25T03:48:56;7.43;;;2.77;;
51495;SDS011;37572;52.094;4.870;2023-04-25T03:51:21;9.50;;;2.50;;
51495;SDS011;37572;52.094;4.870;2023-04-25T03:53:47;4.90;;;2.07;;
51495;SDS011;37572;52.094;4.870;2023-04-25T03:56:12;4.97;;;2.30;;
51495;SDS011;37572;52.094;4.870;2023-04-25T03:58:38;5.47;;;2.07;;
51495;SDS011;37572;52.094;4.870;2023-04-25T04:01:03;8.07;;;2.60;;
51495;SDS011;37572;52.094;4.870;2023-04-25T04:03:32;7.20;;;2.70;;
51495;SDS011;37572;52.094;4.870;2023-04-25T04:05:58;5.68;;;2.47;;
51495;SDS011;37572;52.094;4.870;2023-04-25T04:08:24;6.88;;;3.63;;
51495;SDS011;37572;52.094;4.870;2023-04-25T04:10:49;6.53;;;1.73;;
51495;SDS011;37572;52.094;4.870;2023-04-25T04:13:15;6.18;;;3.92;;
51495;SDS011;37572;52.094;4.870;2023-04-25T04:15:40;6.53;;;2.70;;
51495;SDS011;37572;52.094;4.870;2023-04-25T04:18:05;5.68;;;2.58;;
51495;SDS011;37572;52.094;4.870;2023-04-25T04:20:31;6.03;;;2.08;;
51495;SDS011;37572;52.094;4.870;2023-04-25T04:22:56;3.80;;;1.87;;
51495;SDS011;37572;52.094;4.870;2023-04-25T04:25:22;6.60;;;1.90;;
51495;SDS011;37572;52.094;4.870;2023-04-25T04:27:47;8.43;;;2.40;;
51495;SDS011;37572;52.094;4.870;2023-04-25T04:30:12;6.13;;;2.17;;
51495;SDS011;37572;52.094;4.870;2023-04-25T04:32:38;5.00;;;2.15;;
51495;SDS011;37572;52.094;4.870;2023-04-25T04:35:03;4.53;;;1.53;;
51495;SDS011;37572;52.094;4.870;2023-04-25T04:37:29;9.95;;;3.38;;
51495;SDS011;37572;52.094;4.870;2023-04-25T04:39:55;5.90;;;2.80;;
51495;SDS011;37572;52.094;4.870;2023-04-25T04:42:21;4.10;;;1.98;;
51495;SDS011;37572;52.094;4.870;2023-04-25T04:44:46;8.07;;;3.03;;
51495;SDS011;37572;52.094;4.870;2023-04-25T04:47:11;5.32;;;1.73;;
51495;SDS011;37572;52.094;4.870;2023-04-25T04:49:37;4.32;;;2.00;;
51495;SDS011;37572;52.094;4.870;2023-04-25T04:52:02;4.40;;;1.70;;
51495;SDS011;37572;52.094;4.870;2023-04-25T04:54:28;4.30;;;2.13;;
51495;SDS011;37572;52.094;4.870;2023-04-25T04:56:53;8.05;;;2.42;;
51495;SDS011;37572;52.094;4.870;2023-04-25T04:59:19;4.13;;;2.85;;
51495;SDS011;37572;52.094;4.870;2023-04-25T05:01:44;6.22;;;2.42;;
51495;SDS011;37572;52.094;4.870;2023-04-25T05:04:10;4.65;;;2.10;;
51495;SDS011;37572;52.094;4.870;2023-04-25T05:06:36;5.35;;;1.85;;
51495;SDS011;37572;52.094;4.870;2023-04-25T05:09:01;6.73;;;1.70;;
51495;SDS011;37572;52.094;4.870;2023-04-25T05:11:26;3.50;;;1.73;;
51495;SDS011;37572;52.094;4.870;2023-04-25T05:13:52;4.43;;;1.60;;
51495;SDS011;37572;52.094;4.870;2023-04-25T05:16:18;4.10;;;1.40;;
51495;SDS011;37572;52.094;4.870;2023-04-25T05:18:45;6.45;;;1.70;;
51495;SDS011;37572;52.094;4.870;2023-04-25T05:21:11;3.92;;;2.75;;
51495;SDS011;37572;52.094;4.870;2023-04-25T05:23:37;3.47;;;1.30;;
51495;SDS011;37572;52.094;4.870;2023-04-25T05:26:02;4.43;;;1.50;;
51495;SDS011;37572;52.094;4.870;2023-04-25T05:28:28;3.85;;;1.42;;
51495;SDS011;37572;52.094;4.870;2023-04-25T05:30:53;5.30;;;1.50;;
51495;SDS011;37572;52.094;4.870;2023-04-25T05:33:18;4.53;;;1.63;;
51495;SDS011;37572;52.094;4.870;2023-04-25T05:35:44;3.70;;;1.15;;
51495;SDS011;37572;52.094;4.870;2023-04-25T05:38:09;4.10;;;1.27;;
51495;SDS011;37572;52.094;4.870;2023-04-25T05:40:35;4.65;;;1.48;;
51495;SDS011;37572;52.094;4.870;2023-04-25T05:43:00;3.90;;;1.48;;
51495;SDS011;37572;52.094;4.870;2023-04-25T05:45:26;3.13;;;1.30;;
51495;SDS011;37572;52.094;4.870;2023-04-25T05:47:51;6.57;;;1.45;;
51495;SDS011;37572;52.094;4.870;2023-04-25T05:50:17;4.65;;;1.80;;
51495;SDS011;37572;52.094;4.870;2023-04-25T05:52:42;4.18;;;1.75;;
51495;SDS011;37572;52.094;4.870;2023-04-25T05:55:07;3.58;;;1.55;;
51495;SDS011;37572;52.094;4.870;2023-04-25T05:57:33;4.55;;;1.60;;
51495;SDS011;37572;52.094;4.870;2023-04-25T05:59:58;2.97;;;1.90;;
51495;SDS011;37572;52.094;4.870;2023-04-25T06:02:24;5.43;;;1.92;;
51495;SDS011;37572;52.094;4.870;2023-04-25T06:04:50;3.53;;;1.60;;
51495;SDS011;37572;52.094;4.870;2023-04-25T06:07:15;6.03;;;2.13;;
51495;SDS011;37572;52.094;4.870;2023-04-25T06:09:41;4.55;;;1.58;;
51495;SDS011;37572;52.094;4.870;2023-04-25T06:12:06;6.07;;;2.22;;
51495;SDS011;37572;52.094;4.870;2023-04-25T06:14:32;5.82;;;2.20;;
51495;SDS011;37572;52.094;4.870;2023-04-25T06:16:58;7.20;;;1.90;;
51495;SDS011;37572;52.094;4.870;2023-04-25T06:19:23;5.17;;;2.17;;
51495;SDS011;37572;52.094;4.870;2023-04-25T06:21:49;4.80;;;2.75;;
51495;SDS011;37572;52.094;4.870;2023-04-25T06:24:14;5.03;;;1.77;;
51495;SDS011;37572;52.094;4.870;2023-04-25T06:26:39;7.60;;;2.23;;
51495;SDS011;37572;52.094;4.870;2023-04-25T06:29:04;5.60;;;2.57;;
51495;SDS011;37572;52.094;4.870;2023-04-25T06:31:30;6.50;;;2.10;;
51495;SDS011;37572;52.094;4.870;2023-04-25T06:33:57;9.20;;;1.83;;
51495;SDS011;37572;52.094;4.870;2023-04-25T06:36:23;6.13;;;1.95;;
51495;SDS011;37572;52.094;4.870;2023-04-25T06:38:53;6.60;;;1.55;;
51495;SDS011;37572;52.094;4.870;2023-04-25T06:41:19;6.45;;;1.45;;
51495;SDS011;37572;52.094;4.870;2023-04-25T06:43:44;5.38;;;3.53;;
51495;SDS011;37572;52.094;4.870;2023-04-25T06:46:10;5.03;;;1.70;;
51495;SDS011;37572;52.094;4.870;2023-04-25T06:48:35;6.85;;;1.60;;
51495;SDS011;37572;52.094;4.870;2023-04-25T06:51:01;4.97;;;2.15;;
51495;SDS011;37572;52.094;4.870;2023-04-25T06:53:26;4.43;;;1.13;;
51495;SDS011;37572;52.094;4.870;2023-04-25T06:55:52;5.70;;;1.40;;
51495;SDS011;37572;52.094;4.870;2023-04-25T06:58:17;3.83;;;1.70;;
51495;SDS011;37572;52.094;4.870;2023-04-25T07:00:43;6.15;;;2.40;;
51495;SDS011;37572;52.094;4.870;2023-04-25T07:03:08;5.95;;;1.60;;
51495;SDS011;37572;52.094;4.870;2023-04-25T07:05:33;4.73;;;1.63;;
51495;SDS011;37572;52.094;4.870;2023-04-25T07:07:59;9.00;;;1.37;;
51495;SDS011;37572;52.094;4.870;2023-04-25T07:10:25;5.22;;;1.33;;
51495;SDS011;37572;52.094;4.870;2023-04-25T07:12:50;4.28;;;1.40;;
51495;SDS011;37572;52.094;4.870;2023-04-25T07:15:16;5.78;;;1.38;;
51495;SDS011;37572;52.094;4.870;2023-04-25T07:17:41;5.20;;;2.60;;
51495;SDS011;37572;52.094;4.870;2023-04-25T07:20:07;6.18;;;1.52;;
51495;SDS011;37572;52.094;4.870;2023-04-25T07:22:35;4.68;;;1.75;;
51495;SDS011;37572;52.094;4.870;2023-04-25T07:25:00;3.97;;;1.33;;
51495;SDS011;37572;52.094;4.870;2023-04-25T07:27:25;4.75;;;2.13;;
51495;SDS011;37572;52.094;4.870;2023-04-25T07:29:51;5.80;;;1.47;;
51495;SDS011;37572;52.094;4.870;2023-04-25T07:32:16;3.60;;;1.40;;
51495;SDS011;37572;52.094;4.870;2023-04-25T07:34:41;5.50;;;1.40;;
51495;SDS011;37572;52.094;4.870;2023-04-25T07:37:07;5.15;;;1.42;;
51495;SDS011;37572;52.094;4.870;2023-04-25T07:39:32;2.90;;;1.00;;
51495;SDS011;37572;52.094;4.870;2023-04-25T07:41:57;8.80;;;1.47;;
51495;SDS011;37572;52.094;4.870;2023-04-25T07:44:25;6.45;;;1.58;;
51495;SDS011;37572;52.094;4.870;2023-04-25T07:46:50;4.07;;;1.48;;
51495;SDS011;37572;52.094;4.870;2023-04-25T07:49:16;5.07;;;1.35;;
51495;SDS011;37572;52.094;4.870;2023-04-25T07:51:41;4.50;;;1.40;;
51495;SDS011;37572;52.094;4.870;2023-04-25T07:54:08;7.63;;;1.20;;
51495;SDS011;37572;52.094;4.870;2023-04-25T07:56:39;6.50;;;1.15;;
51495;SDS011;37572;52.094;4.870;2023-04-25T07:59:04;5.00;;;1.13;;
51495;SDS011;37572;52.094;4.870;2023-04-25T08:01:30;5.63;;;1.05;;
51495;SDS011;37572;52.094;4.870;2023-04-25T08:03:55;6.97;;;0.90;;
51495;SDS011;37572;52.094;4.870;2023-04-25T08:06:21;5.13;;;0.90;;
51495;SDS011;37572;52.094;4.870;2023-04-25T08:08:46;2.60;;;0.77;;
51495;SDS011;37572;52.094;4.870;2023-04-25T08:11:11;5.00;;;1.05;;
51495;SDS011;37572;52.094;4.870;2023-04-25T08:13:37;3.53;;;0.90;;
51495;SDS011;37572;52.094;4.870;2023-04-25T08:16:02;4.27;;;1.10;;
51495;SDS011;37572;52.094;4.870;2023-04-25T08:18:28;6.57;;;0.90;;
51495;SDS011;37572;52.094;4.870;2023-04-25T08:20:53;3.57;;;0.97;;
51495;SDS011;37572;52.094;4.870;2023-04-25T08:23:18;5.77;;;1.20;;
51495;SDS011;37572;52.094;4.870;2023-04-25T08:25:43;4.60;;;0.93;;
51495;SDS011;37572;52.094;4.870;2023-04-25T08:28:09;6.78;;;1.30;;
51495;SDS011;37572;52.094;4.870;2023-04-25T08:30:34;5.13;;;1.20;;
51495;SDS011;37572;52.094;4.870;2023-04-25T08:32:59;5.28;;;1.10;;
51495;SDS011;37572;52.094;4.870;2023-04-25T08:35:25;5.13;;;1.05;;
51495;SDS011;37572;52.094;4.870;2023-04-25T08:37:50;6.32;;;1.38;;
51495;SDS011;37572;52.094;4.870;2023-04-25T08:40:16;3.55;;;1.13;;
51495;SDS011;37572;52.094;4.870;2023-04-25T08:42:41;3.22;;;0.82;;
51495;SDS011;37572;52.094;4.870;2023-04-25T08:45:08;6.15;;;1.10;;
51495;SDS011;37572;52.094;4.870;2023-04-25T08:47:34;5.07;;;1.15;;
51495;SDS011;37572;52.094;4.870;2023-04-25T08:50:02;7.35;;;1.38;;
51495;SDS011;37572;52.094;4.870;2023-04-25T08:52:30;4.90;;;1.08;;
51495;SDS011;37572;52.094;4.870;2023-04-25T08:55:00;5.78;;;1.02;;
51495;SDS011;37572;52.094;4.870;2023-04-25T08:57:27;3.55;;;0.88;;
51495;SDS011;37572;52.094;4.870;2023-04-25T08:59:52;3.30;;;1.35;;
51495;SDS011;37572;52.094;4.870;2023-04-25T09:02:19;4.18;;;0.90;;
51495;SDS011;37572;52.094;4.870;2023-04-25T09:04:45;3.63;;;0.80;;
51495;SDS011;37572;52.094;4.870;2023-04-25T09:07:11;3.63;;;0.93;;
51495;SDS011;37572;52.094;4.870;2023-04-25T09:09:37;5.13;;;0.80;;
51495;SDS011;37572;52.094;4.870;2023-04-25T09:12:02;6.03;;;1.05;;
51495;SDS011;37572;52.094;4.870;2023-04-25T09:14:28;6.75;;;1.20;;
51495;SDS011;37572;52.094;4.870;2023-04-25T09:19:31;4.07;;;1.40;;
51495;SDS011;37572;52.094;4.870;2023-04-25T09:22:00;2.83;;;0.90;;
51495;SDS011;37572;52.094;4.870;2023-04-25T09:24:36;4.57;;;2.40;;
51495;SDS011;37572;52.094;4.870;2023-04-25T09:27:03;4.55;;;1.50;;
51495;SDS011;37572;52.094;4.870;2023-04-25T09:29:33;2.45;;;1.00;;
51495;SDS011;37572;52.094;4.870;2023-04-25T09:32:19;3.67;;;0.80;;
51495;SDS011;37572;52.094;4.870;2023-04-25T09:39:45;3.08;;;1.00;;
51495;SDS011;37572;52.094;4.870;2023-04-25T09:42:12;2.28;;;0.73;;
51495;SDS011;37572;52.094;4.870;2023-04-25T09:44:42;1.55;;;0.60;;
51495;SDS011;37572;52.094;4.870;2023-04-25T09:47:11;5.07;;;1.10;;
51495;SDS011;37572;52.094;4.870;2023-04-25T09:49:41;3.80;;;1.00;;
51495;SDS011;37572;52.094;4.870;2023-04-25T09:52:07;3.97;;;1.00;;
51495;SDS011;37572;52.094;4.870;2023-04-25T09:54:33;2.83;;;1.92;;
51495;SDS011;37572;52.094;4.870;2023-04-25T09:57:01;3.50;;;0.77;;
51495;SDS011;37572;52.094;4.870;2023-04-25T09:59:36;3.22;;;0.80;;
51495;SDS011;37572;52.094;4.870;2023-04-25T10:02:04;2.10;;;0.80;;
51495;SDS011;37572;52.094;4.870;2023-04-25T10:04:33;3.30;;;0.90;;
51495;SDS011;37572;52.094;4.870;2023-04-25T10:07:00;2.55;;;0.88;;
51495;SDS011;37572;52.094;4.870;2023-04-25T10:09:28;2.58;;;0.57;;
51495;SDS011;37572;52.094;4.870;2023-04-25T10:11:58;3.80;;;0.98;;
51495;SDS011;37572;52.094;4.870;2023-04-25T10:14:24;3.58;;;1.40;;
51495;SDS011;37572;52.094;4.870;2023-04-25T10:16:51;4.75;;;0.93;;
51495;SDS011;37572;52.094;4.870;2023-04-25T10:19:19;3.33;;;0.60;;
51495;SDS011;37572;52.094;4.870;2023-04-25T10:21:52;5.43;;;1.27;;
51495;SDS011;37572;52.094;4.870;2023-04-25T10:26:49;3.13;;;0.90;;
51495;SDS011;37572;52.094;4.870;2023-04-25T10:29:22;3.75;;;0.93;;
51495;SDS011;37572;52.094;4.870;2023-04-25T10:31:48;2.42;;;1.00;;
51495;SDS011;37572;52.094;4.870;2023-04-25T10:34:15;7.60;;;1.17;;
51495;SDS011;37572;52.094;4.870;2023-04-25T10:36:41;5.43;;;1.00;;
51495;SDS011;37572;52.094;4.870;2023-04-25T10:39:07;3.78;;;0.98;;
51495;SDS011;37572;52.094;4.870;2023-04-25T10:41:46;4.32;;;1.58;;
51495;SDS011;37572;52.094;4.870;2023-04-25T10:44:15;4.28;;;0.95;;
51495;SDS011;37572;52.094;4.870;2023-04-25T10:46:40;4.50;;;1.23;;
51495;SDS011;37572;52.094;4.870;2023-04-25T10:49:06;4.27;;;1.00;;
51495;SDS011;37572;52.094;4.870;2023-04-25T10:51:33;3.05;;;0.63;;
51495;SDS011;37572;52.094;4.870;2023-04-25T10:54:02;3.15;;;0.70;;
51495;SDS011;37572;52.094;4.870;2023-04-25T10:56:33;3.60;;;1.05;;
51495;SDS011;37572;52.094;4.870;2023-04-25T10:59:10;4.30;;;0.70;;
51495;SDS011;37572;52.094;4.870;2023-04-25T11:01:45;4.25;;;1.20;;
51495;SDS011;37572;52.094;4.870;2023-04-25T11:09:20;2.63;;;0.77;;
51495;SDS011;37572;52.094;4.870;2023-04-25T11:11:55;4.53;;;0.90;;
51495;SDS011;37572;52.094;4.870;2023-04-25T11:14:21;3.72;;;1.02;;
51495;SDS011;37572;52.094;4.870;2023-04-25T11:16:47;5.10;;;1.02;;
51495;SDS011;37572;52.094;4.870;2023-04-25T11:19:18;1.75;;;0.80;;
51495;SDS011;37572;52.094;4.870;2023-04-25T11:21:44;3.55;;;0.93;;
51495;SDS011;37572;52.094;4.870;2023-04-25T11:24:10;2.33;;;1.35;;
51495;SDS011;37572;52.094;4.870;2023-04-25T11:26:35;2.43;;;1.20;;
51495;SDS011;37572;52.094;4.870;2023-04-25T11:29:02;3.65;;;1.02;;
51495;SDS011;37572;52.094;4.870;2023-04-25T11:31:28;3.72;;;0.90;;
51495;SDS011;37572;52.094;4.870;2023-04-25T11:33:54;4.53;;;1.23;;
51495;SDS011;37572;52.094;4.870;2023-04-25T11:36:22;4.10;;;1.00;;
51495;SDS011;37572;52.094;4.870;2023-04-25T11:38:51;5.63;;;1.05;;
51495;SDS011;37572;52.094;4.870;2023-04-25T11:41:20;3.58;;;0.85;;
51495;SDS011;37572;52.094;4.870;2023-04-25T11:43:47;4.85;;;1.10;;
51495;SDS011;37572;52.094;4.870;2023-04-25T11:46:13;4.65;;;1.67;;
51495;SDS011;37572;52.094;4.870;2023-04-25T11:48:42;4.77;;;1.10;;
51495;SDS011;37572;52.094;4.870;2023-04-25T11:51:07;4.22;;;1.00;;
51495;SDS011;37572;52.094;4.870;2023-04-25T11:53:33;4.47;;;0.93;;
51495;SDS011;37572;52.094;4.870;2023-04-25T11:55:58;5.28;;;1.08;;
51495;SDS011;37572;52.094;4.870;2023-04-25T11:58:25;7.38;;;1.48;;
51495;SDS011;37572;52.094;4.870;2023-04-25T12:00:50;4.55;;;1.45;;
51495;SDS011;37572;52.094;4.870;2023-04-25T12:03:17;4.83;;;0.90;;
51495;SDS011;37572;52.094;4.870;2023-04-25T12:05:43;6.70;;;1.60;;
51495;SDS011;37572;52.094;4.870;2023-04-25T12:08:13;4.22;;;1.15;;
51495;SDS011;37572;52.094;4.870;2023-04-25T12:10:40;4.82;;;1.33;;
51495;SDS011;37572;52.094;4.870;2023-04-25T12:13:25;3.15;;;0.88;;
51495;SDS011;37572;52.094;4.870;2023-04-25T12:15:53;3.60;;;0.77;;
51495;SDS011;37572;52.094;4.870;2023-04-25T12:18:23;5.03;;;1.38;;
51495;SDS011;37572;52.094;4.870;2023-04-25T12:20:52;4.90;;;0.88;;
51495;SDS011;37572;52.094;4.870;2023-04-25T12:23:24;4.10;;;0.90;;
51495;SDS011;37572;52.094;4.870;2023-04-25T12:25:51;4.10;;;0.93;;
51495;SDS011;37572;52.094;4.870;2023-04-25T12:28:20;3.97;;;0.80;;
51495;SDS011;37572;52.094;4.870;2023-04-25T12:30:52;4.95;;;0.80;;
51495;SDS011;37572;52.094;4.870;2023-04-25T12:33:27;3.80;;;1.23;;
51495;SDS011;37572;52.094;4.870;2023-04-25T12:35:54;4.20;;;0.95;;
51495;SDS011;37572;52.094;4.870;2023-04-25T12:40:53;4.68;;;0.80;;
51495;SDS011;37572;52.094;4.870;2023-04-25T12:43:19;4.18;;;0.80;;
51495;SDS011;37572;52.094;4.870;2023-04-25T12:45:47;3.03;;;0.55;;
51495;SDS011;37572;52.094;4.870;2023-04-25T12:48:12;5.07;;;0.88;;
51495;SDS011;37572;52.094;4.870;2023-04-25T12:50:38;3.33;;;0.90;;
51495;SDS011;37572;52.094;4.870;2023-04-25T12:53:03;2.63;;;0.75;;
51495;SDS011;37572;52.094;4.870;2023-04-25T12:55:29;4.35;;;0.90;;
51495;SDS011;37572;52.094;4.870;2023-04-25T12:57:54;4.45;;;0.73;;
51495;SDS011;37572;52.094;4.870;2023-04-25T13:00:19;4.17;;;0.93;;
51495;SDS011;37572;52.094;4.870;2023-04-25T13:02:45;2.60;;;0.60;;
51495;SDS011;37572;52.094;4.870;2023-04-25T13:05:13;3.72;;;1.15;;
51495;SDS011;37572;52.094;4.870;2023-04-25T13:07:38;3.97;;;0.63;;
51495;SDS011;37572;52.094;4.870;2023-04-25T13:10:04;3.90;;;1.00;;
51495;SDS011;37572;52.094;4.870;2023-04-25T13:12:30;3.35;;;0.60;;
51495;SDS011;37572;52.094;4.870;2023-04-25T13:14:56;3.42;;;0.93;;
51495;SDS011;37572;52.094;4.870;2023-04-25T13:17:22;4.25;;;1.27;;
51495;SDS011;37572;52.094;4.870;2023-04-25T13:19:47;3.80;;;0.90;;
51495;SDS011;37572;52.094;4.870;2023-04-25T13:22:12;5.03;;;0.90;;
51495;SDS011;37572;52.094;4.870;2023-04-25T13:24:40;3.78;;;1.10;;
51495;SDS011;37572;52.094;4.870;2023-04-25T13:27:05;3.47;;;1.20;;
51495;SDS011;37572;52.094;4.870;2023-04-25T13:29:31;4.20;;;0.95;;
51495;SDS011;37572;52.094;4.870;2023-04-25T13:31:56;3.33;;;1.15;;
51495;SDS011;37572;52.094;4.870;2023-04-25T13:34:21;3.93;;;1.20;;
51495;SDS011;37572;52.094;4.870;2023-04-25T13:36:47;3.60;;;1.40;;
51495;SDS011;37572;52.094;4.870;2023-04-25T13:39:12;3.20;;;1.07;;
51495;SDS011;37572;52.094;4.870;2023-04-25T13:41:38;3.78;;;1.10;;
51495;SDS011;37572;52.094;4.870;2023-04-25T13:44:03;4.30;;;1.27;;
51495;SDS011;37572;52.094;4.870;2023-04-25T13:46:29;3.67;;;1.20;;
51495;SDS011;37572;52.094;4.870;2023-04-25T13:48:54;3.83;;;1.05;;
51495;SDS011;37572;52.094;4.870;2023-04-25T13:51:19;3.40;;;1.03;;
51495;SDS011;37572;52.094;4.870;2023-04-25T13:53:45;3.47;;;1.00;;
51495;SDS011;37572;52.094;4.870;2023-04-25T13:56:11;7.38;;;1.48;;
51495;SDS011;37572;52.094;4.870;2023-04-25T13:58:36;4.22;;;1.45;;
51495;SDS011;37572;52.094;4.870;2023-04-25T14:01:02;3.05;;;0.90;;
51495;SDS011;37572;52.094;4.870;2023-04-25T14:03:28;3.78;;;1.40;;
51495;SDS011;37572;52.094;4.870;2023-04-25T14:05:54;4.90;;;1.02;;
51495;SDS011;37572;52.094;4.870;2023-04-25T14:08:20;3.90;;;1.08;;
51495;SDS011;37572;52.094;4.870;2023-04-25T14:10:45;4.20;;;1.07;;
51495;SDS011;37572;52.094;4.870;2023-04-25T14:13:10;4.67;;;1.30;;
51495;SDS011;37572;52.094;4.870;2023-04-25T14:15:36;4.18;;;1.00;;
51495;SDS011;37572;52.094;4.870;2023-04-25T14:18:01;4.00;;;1.33;;
51495;SDS011;37572;52.094;4.870;2023-04-25T14:20:27;2.67;;;1.00;;
51495;SDS011;37572;52.094;4.870;2023-04-25T14:22:53;3.17;;;1.30;;
51495;SDS011;37572;52.094;4.870;2023-04-25T14:25:20;6.00;;;1.70;;
51495;SDS011;37572;52.094;4.870;2023-04-25T14:27:46;4.72;;;2.13;;
51495;SDS011;37572;52.094;4.870;2023-04-25T14:30:15;3.92;;;1.30;;
51495;SDS011;37572;52.094;4.870;2023-04-25T14:32:41;2.80;;;1.00;;
51495;SDS011;37572;52.094;4.870;2023-04-25T14:35:07;3.00;;;1.25;;
51495;SDS011;37572;52.094;4.870;2023-04-25T14:37:32;4.50;;;1.27;;
51495;SDS011;37572;52.094;4.870;2023-04-25T14:39:58;2.67;;;0.80;;
51495;SDS011;37572;52.094;4.870;2023-04-25T14:42:23;5.47;;;2.17;;
51495;SDS011;37572;52.094;4.870;2023-04-25T14:44:48;4.57;;;1.30;;
51495;SDS011;37572;52.094;4.870;2023-04-25T14:47:14;3.75;;;1.25;;
51495;SDS011;37572;52.094;4.870;2023-04-25T14:49:40;4.13;;;1.08;;
51495;SDS011;37572;52.094;4.870;2023-04-25T14:52:06;3.38;;;1.05;;
51495;SDS011;37572;52.094;4.870;2023-04-25T14:54:31;3.08;;;1.13;;
51495;SDS011;37572;52.094;4.870;2023-04-25T14:56:57;4.50;;;1.20;;